createdAt,value
2023-06-29T08:08:50.415Z,21.60
2023-06-29T08:11:17.243Z,21.50
2023-06-29T08:13:44.117Z,21.80
2023-06-29T08:16:10.920Z,21.70
2023-06-29T08:18:37.642Z,21.70
2023-06-29T08:21:04.560Z,21.80
2023-06-29T08:23:34.472Z,21.60
2023-06-29T08:26:01.222Z,21.70
2023-06-29T08:28:28.048Z,21.80
2023-06-29T08:30:54.793Z,21.90
2023-06-29T08:33:24.758Z,21.90
2023-06-29T08:35:52.700Z,21.90
2023-06-29T08:38:19.596Z,22.10
2023-06-29T08:40:48.604Z,22.40
2023-06-29T08:43:16.880Z,22.60
2023-06-29T08:45:44.009Z,22.60
2023-06-29T08:48:12.964Z,22.60
2023-06-29T08:50:45.629Z,22.80
2023-06-29T08:53:14.456Z,22.60
2023-06-29T08:55:42.868Z,22.80
2023-06-29T08:58:09.730Z,22.70
2023-06-29T09:00:38.437Z,22.70
2023-06-29T09:03:06.108Z,22.70
2023-06-29T09:05:33.762Z,22.50
2023-06-29T09:08:00.512Z,22.60
2023-06-29T09:10:27.213Z,22.80
2023-06-29T09:12:54.472Z,22.70
2023-06-29T09:15:26.098Z,22.50
2023-06-29T09:17:56.924Z,22.70
2023-06-29T09:20:24.367Z,22.70
2023-06-29T09:22:52.509Z,22.80
2023-06-29T09:25:33.052Z,22.80
2023-06-29T09:28:06.036Z,22.70
2023-06-29T09:30:36.773Z,22.80
2023-06-29T09:33:13.510Z,22.90
2023-06-29T09:35:51.631Z,22.90
2023-06-29T09:38:18.568Z,22.90
2023-06-29T09:40:53.379Z,23.00
2023-06-29T09:43:22.056Z,23.00
2023-06-29T09:45:49.410Z,23.10
2023-06-29T09:50:51.781Z,23.20
2023-06-29T09:53:28.354Z,23.40
2023-06-29T09:55:58.255Z,23.50
2023-06-29T09:58:25.784Z,23.40
2023-06-29T10:00:53.269Z,23.40
2023-06-29T10:03:20.181Z,23.40
2023-06-29T10:05:48.600Z,23.30
2023-06-29T10:08:17.619Z,23.40
2023-06-29T10:10:45.224Z,23.50
2023-06-29T10:13:12.979Z,23.80
2023-06-29T10:15:40.015Z,23.80
2023-06-29T10:18:12.443Z,23.80
2023-06-29T10:20:42.633Z,23.90
2023-06-29T10:23:11.771Z,23.70
2023-06-29T10:25:42.691Z,24.00
2023-06-29T10:28:10.692Z,23.90
2023-06-29T10:30:45.751Z,24.00
2023-06-29T10:33:13.674Z,23.80
2023-06-29T10:35:41.801Z,24.10
2023-06-29T10:38:13.417Z,24.40
2023-06-29T10:40:50.100Z,24.70
2023-06-29T10:43:16.993Z,24.90
2023-06-29T10:45:43.714Z,24.90
2023-06-29T10:48:27.999Z,24.90
2023-06-29T10:51:01.323Z,24.90
2023-06-29T10:53:30.781Z,25.20
2023-06-29T10:55:57.796Z,25.50
2023-06-29T10:58:33.116Z,25.00
2023-06-29T11:01:00.765Z,24.80
2023-06-29T11:03:27.992Z,25.10
2023-06-29T11:05:56.281Z,25.20
2023-06-29T11:08:24.409Z,25.20
2023-06-29T11:10:52.521Z,24.70
2023-06-29T11:13:20.738Z,24.80
2023-06-29T11:15:55.577Z,24.90
2023-06-29T11:18:22.524Z,24.70
2023-06-29T11:20:49.749Z,25.10
2023-06-29T11:23:17.948Z,25.20
2023-06-29T11:25:45.149Z,24.70
2023-06-29T11:28:16.071Z,24.70
2023-06-29T11:30:43.215Z,25.00
2023-06-29T11:33:24.212Z,25.20
2023-06-29T11:35:58.519Z,24.90
2023-06-29T11:38:25.298Z,25.10
2023-06-29T11:41:06.168Z,24.70
2023-06-29T11:43:33.729Z,24.50
2023-06-29T11:46:01.381Z,24.20
2023-06-29T11:48:30.981Z,24.20
2023-06-29T11:51:01.722Z,24.30
2023-06-29T11:53:29.495Z,24.30
2023-06-29T11:55:56.957Z,24.40
2023-06-29T11:58:23.689Z,24.40
2023-06-29T12:00:59.082Z,24.30
2023-06-29T12:03:27.617Z,24.10
2023-06-29T12:05:54.510Z,24.20
2023-06-29T12:08:22.503Z,24.30
2023-06-29T12:10:49.345Z,24.40
2023-06-29T12:13:16.086Z,24.20
2023-06-29T12:18:00.577Z,24.20
2023-06-29T12:18:36.502Z,24.20
2023-06-29T12:21:04.476Z,24.30
2023-06-29T12:23:31.573Z,24.10
2023-06-29T12:25:58.270Z,24.20
2023-06-29T12:28:25.123Z,24.40
2023-06-29T12:30:51.968Z,24.50
2023-06-29T12:33:18.699Z,24.30
2023-06-29T12:35:45.583Z,24.50
2023-06-29T12:38:12.902Z,24.60
2023-06-29T12:40:39.838Z,24.80
2023-06-29T12:43:06.640Z,24.30
2023-06-29T12:45:34.846Z,24.40
2023-06-29T12:48:01.612Z,24.20
2023-06-29T12:50:28.288Z,24.20
2023-06-29T12:52:54.987Z,23.90
2023-06-29T12:55:21.800Z,24.00
2023-06-29T12:57:48.597Z,23.90
2023-06-29T13:00:19.442Z,23.90
2023-06-29T13:02:49.272Z,23.80
2023-06-29T13:05:16.270Z,23.70
2023-06-29T13:07:44.235Z,23.40
2023-06-29T13:10:13.000Z,23.30
2023-06-29T13:12:41.901Z,23.10
2023-06-29T13:15:09.163Z,22.80
2023-06-29T13:17:35.825Z,23.00
2023-06-29T13:20:02.669Z,23.40
2023-06-29T13:22:29.326Z,23.40
2023-06-29T13:24:56.061Z,23.50
2023-06-29T13:27:23.286Z,23.80
2023-06-29T13:29:49.994Z,24.20
2023-06-29T13:32:16.773Z,24.50
2023-06-29T13:34:43.515Z,24.70
2023-06-29T13:37:10.222Z,24.60
2023-06-29T13:39:38.763Z,24.20
2023-06-29T13:42:06.683Z,24.20
2023-06-29T13:44:33.334Z,24.10
2023-06-29T13:47:00.216Z,24.30
2023-06-29T13:49:27.114Z,24.20
2023-06-29T13:51:53.931Z,24.30
2023-06-29T13:54:20.630Z,24.20
2023-06-29T13:56:48.002Z,24.30
2023-06-29T13:59:14.724Z,24.60
2023-06-29T14:01:41.637Z,24.50
2023-06-29T14:04:12.346Z,24.30
2023-06-29T14:06:41.724Z,24.50
2023-06-29T14:09:10.512Z,24.30
2023-06-29T14:11:37.980Z,24.00
2023-06-29T14:14:04.814Z,24.20
2023-06-29T14:16:32.178Z,24.20
2023-06-29T14:19:00.608Z,24.00
2023-06-29T14:21:27.736Z,23.90
2023-06-29T14:23:54.863Z,23.90
2023-06-29T14:26:22.198Z,24.30
2023-06-29T14:28:49.308Z,24.30
2023-06-29T14:31:17.973Z,24.70
2023-06-29T14:33:45.666Z,24.20
2023-06-29T14:36:12.570Z,24.40
2023-06-29T14:38:39.461Z,24.40
2023-06-29T14:41:06.724Z,24.40
2023-06-29T14:43:33.660Z,24.10
2023-06-29T14:46:00.536Z,24.20
2023-06-29T14:48:27.582Z,24.40
2023-06-29T14:50:54.711Z,24.30
2023-06-29T14:53:22.673Z,24.50
2023-06-29T14:55:50.631Z,24.20
2023-06-29T14:58:18.074Z,24.10
2023-06-29T15:00:45.986Z,24.00
2023-06-29T15:03:13.364Z,23.90
2023-06-29T15:05:40.374Z,23.90
2023-06-29T15:08:07.291Z,23.90
2023-06-29T15:10:34.243Z,24.00
2023-06-29T15:13:01.164Z,23.70
2023-06-29T15:15:28.052Z,23.80
2023-06-29T15:17:54.929Z,24.10
2023-06-29T15:20:22.065Z,23.90
2023-06-29T15:22:48.953Z,23.80
2023-06-29T15:25:16.013Z,24.10
2023-06-29T15:27:42.949Z,24.20
2023-06-29T15:30:10.447Z,24.10
2023-06-29T15:32:37.401Z,23.80
2023-06-29T15:35:04.514Z,23.80
2023-06-29T15:37:33.920Z,23.90
2023-06-29T15:40:01.119Z,23.80
2023-06-29T15:42:29.501Z,23.80
2023-06-29T15:44:56.825Z,23.50
2023-06-29T15:47:24.067Z,23.70
2023-06-29T15:49:50.981Z,23.20
2023-06-29T15:52:18.115Z,23.20
2023-06-29T15:54:45.210Z,22.80
2023-06-29T15:57:12.666Z,23.00
2023-06-29T15:59:39.684Z,23.30
2023-06-29T16:02:07.616Z,23.30
2023-06-29T16:04:34.940Z,23.40
2023-06-29T16:07:02.150Z,23.50
2023-06-29T16:09:33.319Z,23.30
2023-06-29T16:12:00.873Z,23.10
2023-06-29T16:14:27.713Z,23.20
2023-06-29T16:16:54.800Z,22.90
2023-06-29T16:19:22.283Z,22.90
2023-06-29T16:21:49.199Z,22.80
2023-06-29T16:24:16.238Z,22.90
2023-06-29T16:26:43.863Z,22.60
2023-06-29T16:29:10.722Z,22.10
2023-06-29T16:31:37.651Z,22.20
2023-06-29T16:34:04.921Z,22.40
2023-06-29T16:36:32.794Z,22.20
2023-06-29T16:38:59.614Z,22.40
2023-06-29T16:41:26.764Z,22.30
2023-06-29T16:43:54.616Z,22.40
2023-06-29T16:46:22.867Z,22.00
2023-06-29T16:49:00.464Z,22.20
2023-06-29T16:51:31.664Z,21.90
2023-06-29T16:53:59.411Z,22.00
2023-06-29T16:56:29.039Z,21.90
2023-06-29T16:58:56.060Z,21.50
2023-06-29T17:01:23.334Z,21.40
2023-06-29T17:03:50.421Z,21.30
2023-06-29T17:06:17.716Z,20.80
2023-06-29T17:08:45.325Z,20.80
2023-06-29T17:11:12.532Z,20.90
2023-06-29T17:13:39.493Z,20.60
2023-06-29T17:16:07.826Z,20.60
2023-06-29T17:18:38.065Z,20.60
2023-06-29T17:21:05.004Z,20.60
2023-06-29T17:23:32.034Z,20.50
2023-06-29T17:25:59.209Z,20.60
2023-06-29T17:28:26.561Z,20.60
2023-06-29T17:30:53.610Z,20.60
2023-06-29T17:33:22.102Z,20.50
2023-06-29T17:35:49.384Z,20.60
2023-06-29T17:38:16.381Z,20.60
2023-06-29T17:40:43.440Z,20.40
2023-06-29T17:43:10.410Z,20.60
2023-06-29T17:45:37.233Z,20.60
2023-06-29T17:48:04.494Z,20.20
2023-06-29T17:50:31.334Z,19.90
2023-06-29T17:52:58.258Z,19.90
2023-06-29T17:55:25.315Z,19.80
2023-06-29T17:57:52.695Z,19.90
2023-06-29T18:00:20.220Z,19.80
2023-06-29T18:02:47.133Z,19.70
2023-06-29T18:05:14.357Z,19.90
2023-06-29T18:07:41.220Z,19.70
2023-06-29T18:10:08.639Z,19.60
2023-06-29T18:12:37.099Z,19.60
2023-06-29T18:15:06.934Z,19.30
2023-06-29T18:17:37.341Z,19.20
2023-06-29T18:20:04.584Z,19.40
2023-06-29T18:22:31.552Z,19.20
2023-06-29T18:25:02.218Z,19.10
2023-06-29T18:27:29.198Z,19.20
2023-06-29T18:29:55.945Z,18.90
2023-06-29T18:32:22.715Z,18.80
2023-06-29T18:34:49.455Z,18.80
2023-06-29T18:37:16.176Z,18.70
2023-06-29T18:39:43.553Z,18.90
2023-06-29T18:42:11.617Z,18.60
2023-06-29T18:44:38.901Z,18.80
2023-06-29T18:47:12.689Z,18.70
2023-06-29T18:49:51.312Z,18.80
2023-06-29T18:52:18.904Z,18.80
2023-06-29T18:54:46.112Z,18.70
2023-06-29T18:57:13.131Z,18.50
2023-06-29T18:59:40.079Z,18.70
2023-06-29T19:02:07.312Z,18.80
2023-06-29T19:04:34.602Z,18.80
2023-06-29T19:07:01.860Z,18.80
2023-06-29T19:09:31.536Z,18.70
2023-06-29T19:12:00.449Z,18.60
2023-06-29T19:14:27.594Z,18.60
2023-06-29T19:16:57.634Z,18.60
2023-06-29T19:19:27.552Z,18.60
2023-06-29T19:21:54.543Z,18.60
2023-06-29T19:24:21.657Z,18.60
2023-06-29T19:26:48.694Z,18.80
2023-06-29T19:29:15.812Z,18.60
2023-06-29T19:31:44.859Z,18.60
2023-06-29T19:34:12.536Z,18.50
2023-06-29T19:36:39.868Z,18.40
2023-06-29T19:39:06.920Z,18.30
2023-06-29T19:41:34.110Z,18.30
2023-06-29T19:44:01.141Z,18.40
2023-06-29T19:46:28.149Z,18.40
2023-06-29T19:48:55.187Z,18.40
2023-06-29T19:51:22.155Z,18.30
2023-06-29T19:53:48.864Z,18.30
2023-06-29T19:56:15.952Z,18.30
2023-06-29T19:58:42.734Z,18.30
2023-06-29T20:01:09.474Z,18.30
2023-06-29T20:03:36.313Z,18.40
2023-06-29T20:06:04.490Z,18.30
2023-06-29T20:08:31.136Z,18.30
2023-06-29T20:10:58.159Z,18.30
2023-06-29T20:13:25.367Z,18.20
2023-06-29T20:15:52.109Z,18.30
2023-06-29T20:18:19.043Z,18.30
2023-06-29T20:20:45.809Z,18.20
2023-06-29T20:23:12.503Z,18.20
2023-06-29T20:25:39.183Z,18.20
2023-06-29T20:28:06.362Z,18.30
2023-06-29T20:30:33.261Z,18.30
2023-06-29T20:33:00.234Z,18.30
2023-06-29T20:35:27.648Z,18.30
2023-06-29T20:37:54.809Z,18.30
2023-06-29T20:40:21.640Z,18.20
2023-06-29T20:42:48.289Z,18.20
2023-06-29T20:45:15.132Z,18.10
2023-06-29T20:47:41.944Z,18.20
2023-06-29T20:50:09.030Z,18.00
2023-06-29T20:52:35.731Z,18.10
2023-06-29T20:55:02.636Z,18.10
2023-06-29T20:57:29.423Z,18.10
2023-06-29T20:59:56.132Z,18.20
2023-06-29T21:02:23.648Z,18.20
2023-06-29T21:04:50.531Z,18.20
2023-06-29T21:07:17.227Z,18.20
2023-06-29T21:09:43.957Z,18.20
2023-06-29T21:12:11.378Z,18.10
2023-06-29T21:14:38.288Z,18.00
2023-06-29T21:17:05.332Z,18.00
2023-06-29T21:19:32.662Z,18.10
2023-06-29T21:21:59.513Z,18.00
2023-06-29T21:24:26.413Z,18.10
2023-06-29T21:26:53.990Z,18.00
2023-06-29T21:29:33.841Z,17.90
2023-06-29T21:32:10.600Z,18.10
2023-06-29T21:34:37.578Z,18.10
2023-06-29T21:37:05.186Z,18.10
2023-06-29T21:39:31.920Z,18.00
2023-06-29T21:41:58.668Z,18.00
2023-06-29T21:44:25.379Z,18.10
2023-06-29T21:46:52.393Z,18.00
2023-06-29T21:49:19.392Z,18.00
2023-06-29T21:51:46.154Z,17.90
2023-06-29T21:54:14.881Z,17.90
2023-06-29T21:56:41.794Z,18.00
2023-06-29T21:59:08.514Z,17.80
2023-06-29T22:01:35.274Z,17.80
2023-06-29T22:04:02.319Z,17.70
2023-06-29T22:06:30.150Z,17.80
2023-06-29T22:08:57.604Z,17.60
2023-06-29T22:11:27.556Z,17.70
2023-06-29T22:13:54.208Z,17.70
2023-06-29T22:16:21.697Z,17.60
2023-06-29T22:18:52.004Z,17.60
2023-06-29T22:21:23.167Z,17.70
2023-06-29T22:23:54.593Z,17.70
2023-06-29T22:26:22.772Z,17.70
2023-06-29T22:28:49.975Z,17.60
2023-06-29T22:31:18.643Z,17.50
2023-06-29T22:33:46.257Z,17.40
2023-06-29T22:36:14.739Z,17.50
2023-06-29T22:38:42.249Z,17.50
2023-06-29T22:41:09.468Z,17.50
2023-06-29T22:43:36.557Z,17.30
2023-06-29T22:46:03.609Z,17.30
2023-06-29T22:48:30.368Z,17.20
2023-06-29T22:50:57.171Z,17.20
2023-06-29T22:53:26.914Z,17.10
2023-06-29T22:55:53.622Z,17.20
2023-06-29T22:58:25.058Z,17.10
2023-06-29T23:00:53.226Z,17.10
2023-06-29T23:03:20.687Z,17.00
2023-06-29T23:05:48.057Z,17.00
2023-06-29T23:08:16.097Z,16.90
2023-06-29T23:10:42.905Z,16.80
2023-06-29T23:13:14.871Z,16.80
2023-06-29T23:15:43.413Z,16.80
2023-06-29T23:18:14.166Z,16.60
2023-06-29T23:20:45.018Z,16.60
